createdAt,value
2022-08-28T10:40:27.567Z,38.00
2022-08-28T10:43:04.827Z,37.60
2022-08-28T10:45:35.899Z,36.50
2022-08-28T10:48:11.575Z,36.70
2022-08-28T10:50:45.614Z,36.20
2022-08-28T10:53:19.464Z,36.30
2022-08-28T10:55:56.534Z,35.60
2022-08-28T10:58:27.668Z,34.10
2022-08-28T11:00:58.498Z,34.20
2022-08-28T11:03:34.790Z,33.90
2022-08-28T11:06:11.568Z,33.20
2022-08-28T11:08:41.103Z,33.20
2022-08-28T11:11:15.233Z,32.70
2022-08-28T11:13:57.282Z,32.10
2022-08-28T11:16:38.111Z,31.20
2022-08-28T11:19:43.985Z,31.60
2022-08-28T11:22:17.762Z,30.70
2022-08-28T11:24:52.922Z,30.80
2022-08-28T11:27:27.446Z,30.50
2022-08-28T11:30:20.870Z,30.00
2022-08-28T11:33:05.364Z,29.70
2022-08-28T11:35:52.347Z,29.80
2022-08-28T11:39:02.402Z,30.80
2022-08-28T11:41:33.343Z,30.20
2022-08-28T11:44:29.335Z,30.20
2022-08-28T11:47:42.102Z,30.90
2022-08-28T11:50:18.617Z,30.00
2022-08-28T11:53:14.301Z,29.20
2022-08-28T11:56:03.600Z,29.20
2022-08-28T11:58:40.180Z,28.50
2022-08-28T12:01:12.965Z,27.70
2022-08-28T12:03:44.677Z,27.70
2022-08-28T12:06:14.504Z,28.40
2022-08-28T12:09:12.960Z,28.10
2022-08-28T12:12:11.627Z,27.50
2022-08-28T12:15:07.442Z,28.80
2022-08-28T12:17:52.402Z,28.30
2022-08-28T12:20:42.157Z,28.00
2022-08-28T12:23:37.115Z,27.70
2022-08-28T12:26:08.704Z,27.70
2022-08-28T12:28:45.402Z,27.70
2022-08-28T12:31:57.973Z,27.10
2022-08-28T12:34:39.400Z,27.00
2022-08-28T12:37:24.826Z,26.30
2022-08-28T12:39:53.826Z,27.30
2022-08-28T12:42:26.503Z,27.10
2022-08-28T12:45:00.133Z,26.50
2022-08-28T12:47:36.995Z,26.60
2022-08-28T12:50:28.507Z,26.70
2022-08-28T12:52:59.935Z,26.30
2022-08-28T12:55:28.676Z,26.20
2022-08-28T12:57:56.987Z,26.00
2022-08-28T13:00:28.295Z,25.60
2022-08-28T13:02:57.960Z,25.90
2022-08-28T13:05:41.237Z,25.70
2022-08-28T13:08:12.875Z,26.00
2022-08-28T13:10:51.617Z,25.20
2022-08-28T13:13:26.372Z,25.50
2022-08-28T13:15:58.131Z,25.30
2022-08-28T13:18:51.526Z,25.20
2022-08-28T13:21:58.504Z,25.60
2022-08-28T13:24:47.279Z,25.90
2022-08-28T13:27:24.918Z,24.90
2022-08-28T13:30:03.747Z,24.50
2022-08-28T13:32:33.659Z,24.50
2022-08-28T13:35:16.901Z,24.70
2022-08-28T13:37:50.309Z,24.50
2022-08-28T13:40:56.345Z,24.00
2022-08-28T13:43:19.362Z,24.10
2022-08-28T13:45:57.807Z,24.30
2022-08-28T13:48:29.175Z,24.30
2022-08-28T13:51:07.599Z,24.70
2022-08-28T13:53:43.812Z,24.20
2022-08-28T13:56:15.553Z,24.10
2022-08-28T13:58:45.082Z,25.10
2022-08-28T14:01:50.758Z,24.90
2022-08-28T14:04:19.795Z,24.70
2022-08-28T14:06:51.330Z,25.20
2022-08-28T14:09:22.829Z,24.80
2022-08-28T14:11:53.289Z,24.30
2022-08-28T14:14:28.983Z,24.50
2022-08-28T14:16:58.213Z,25.00
2022-08-28T14:19:26.562Z,24.30
2022-08-28T14:21:55.062Z,24.90
2022-08-28T14:24:28.544Z,24.50
2022-08-28T14:26:59.738Z,23.80
2022-08-28T14:29:27.900Z,23.70
2022-08-28T14:31:56.198Z,23.70
2022-08-28T14:34:26.400Z,24.10
2022-08-28T14:36:58.175Z,23.70
2022-08-28T14:39:31.404Z,23.80
2022-08-28T14:41:59.552Z,23.60
2022-08-28T14:44:30.012Z,23.30
2022-08-28T14:46:58.218Z,23.40
2022-08-28T14:49:28.249Z,23.80
2022-08-28T14:51:57.485Z,23.60
2022-08-28T14:54:27.896Z,24.00
2022-08-28T14:57:02.859Z,24.20
2022-08-28T14:59:34.878Z,24.10
2022-08-28T15:02:03.476Z,23.80
2022-08-28T15:04:34.727Z,24.10
2022-08-28T15:07:08.248Z,24.10
2022-08-28T15:09:42.976Z,24.30
2022-08-28T15:12:11.841Z,25.10
2022-08-28T15:17:34.049Z,24.80
2022-08-28T15:20:03.396Z,25.20
2022-08-28T15:22:31.664Z,24.70
2022-08-28T15:25:01.130Z,24.50
2022-08-28T15:27:29.244Z,24.50
2022-08-28T15:29:57.378Z,24.50
2022-08-28T15:32:25.590Z,24.50
2022-08-28T15:34:53.869Z,24.70
2022-08-28T15:37:21.994Z,24.60
2022-08-28T15:40:07.565Z,24.40
2022-08-28T15:42:39.328Z,25.00
2022-08-28T15:45:09.413Z,24.80
2022-08-28T15:47:38.440Z,24.70
2022-08-28T15:50:07.920Z,24.60
2022-08-28T15:52:39.499Z,24.70
2022-08-28T15:55:08.239Z,24.80
2022-08-28T15:57:37.955Z,24.50
2022-08-28T16:00:10.225Z,24.70
2022-08-28T16:02:38.899Z,24.90
2022-08-28T16:05:08.022Z,24.60
2022-08-28T16:07:36.538Z,24.70
2022-08-28T16:10:07.088Z,24.60
2022-08-28T16:12:35.510Z,24.50
2022-08-28T16:15:05.520Z,24.50
2022-08-28T16:17:33.670Z,24.70
2022-08-28T16:20:02.034Z,24.50
2022-08-28T16:22:30.450Z,24.50
2022-08-28T16:24:58.591Z,24.60
2022-08-28T16:27:26.693Z,24.80
2022-08-28T16:29:55.549Z,25.10
2022-08-28T16:32:26.490Z,25.20
2022-08-28T16:34:54.859Z,25.00
2022-08-28T16:37:23.276Z,24.80
2022-08-28T16:39:55.032Z,25.00
2022-08-28T16:42:23.573Z,25.20
2022-08-28T16:44:51.686Z,25.30
2022-08-28T16:47:19.785Z,25.70
2022-08-28T16:49:49.315Z,25.50
2022-08-28T16:52:17.517Z,25.70
2022-08-28T16:54:48.618Z,25.50
2022-08-28T16:57:17.167Z,25.50
2022-08-28T16:59:45.599Z,25.40
2022-08-28T17:02:15.487Z,25.70
2022-08-28T17:04:44.851Z,25.80
2022-08-28T17:07:14.802Z,25.90
2022-08-28T17:09:42.948Z,26.00
2022-08-28T17:12:11.594Z,26.20
2022-08-28T17:14:41.895Z,26.30
2022-08-28T17:17:10.035Z,26.50
2022-08-28T17:19:38.456Z,26.60
2022-08-28T17:22:24.337Z,26.80
2022-08-28T17:24:58.842Z,27.10
2022-08-28T17:27:27.621Z,27.90
2022-08-28T17:29:55.886Z,28.10
2022-08-28T17:32:24.127Z,28.10
2022-08-28T17:34:52.456Z,28.20
2022-08-28T17:37:20.811Z,28.20
2022-08-28T17:39:49.185Z,28.30
2022-08-28T17:42:18.739Z,28.30
2022-08-28T17:44:46.926Z,28.50
2022-08-28T17:47:15.059Z,28.60
2022-08-28T17:49:45.114Z,28.60
2022-08-28T17:52:13.860Z,28.90
2022-08-28T17:54:42.036Z,29.00
2022-08-28T17:57:10.195Z,29.30
2022-08-28T17:59:40.011Z,29.50
2022-08-28T18:02:10.395Z,29.80
2022-08-28T18:04:38.561Z,29.90
2022-08-28T18:07:08.771Z,30.00
2022-08-28T18:09:36.961Z,30.30
2022-08-28T18:12:06.367Z,30.60
2022-08-28T18:14:42.161Z,30.80
2022-08-28T18:17:13.398Z,31.10
2022-08-28T18:19:41.974Z,31.20
2022-08-28T18:22:12.658Z,31.40
2022-08-28T18:24:41.499Z,31.70
2022-08-28T18:27:09.639Z,31.80
2022-08-28T18:29:39.486Z,32.00
2022-08-28T18:32:09.061Z,32.10
2022-08-28T18:34:37.317Z,32.30
2022-08-28T18:37:05.951Z,32.40
2022-08-28T18:39:35.862Z,32.60
2022-08-28T18:42:04.167Z,32.80
2022-08-28T18:44:32.615Z,32.90
2022-08-28T18:47:00.974Z,33.10
2022-08-28T18:49:30.502Z,33.40
2022-08-28T18:51:58.791Z,33.70
2022-08-28T18:54:27.898Z,33.70
2022-08-28T18:57:01.417Z,33.90
2022-08-28T18:59:33.322Z,34.10
2022-08-28T19:02:03.560Z,34.30
2022-08-28T19:04:33.793Z,34.60
2022-08-28T19:07:01.969Z,34.80
2022-08-28T19:09:32.404Z,34.90
2022-08-28T19:12:02.834Z,35.00
2022-08-28T19:14:30.942Z,35.10
2022-08-28T19:16:59.136Z,35.20
2022-08-28T19:19:28.168Z,35.40
2022-08-28T19:22:00.354Z,35.50
2022-08-28T19:24:31.233Z,35.70
2022-08-28T19:26:59.429Z,35.80
2022-08-28T19:29:27.931Z,35.70
2022-08-28T19:32:08.017Z,35.80
2022-08-28T19:34:36.519Z,36.10
2022-08-28T19:37:06.648Z,35.80
2022-08-28T19:39:35.040Z,36.00
2022-08-28T19:42:03.419Z,36.00
2022-08-28T19:44:31.591Z,36.00
2022-08-28T19:46:59.691Z,36.20
2022-08-28T19:49:42.635Z,36.20
2022-08-28T19:52:16.430Z,36.60
2022-08-28T19:54:44.695Z,36.50
2022-08-28T19:57:12.809Z,36.80
2022-08-28T19:59:44.284Z,36.60
2022-08-28T20:02:13.256Z,36.60
2022-08-28T20:04:41.448Z,36.40
2022-08-28T20:07:09.660Z,36.40
2022-08-28T20:09:39.259Z,36.50
2022-08-28T20:12:07.518Z,36.80
2022-08-28T20:14:35.608Z,36.90
2022-08-28T20:17:17.775Z,37.00
2022-08-28T20:19:47.651Z,37.50
2022-08-28T20:22:16.332Z,37.20
2022-08-28T20:24:45.950Z,37.40
2022-08-28T20:27:14.099Z,37.60
2022-08-28T20:29:42.236Z,37.60
2022-08-28T20:32:10.555Z,37.80
2022-08-28T20:34:43.860Z,37.80
2022-08-28T20:37:12.591Z,37.90
2022-08-28T20:39:41.701Z,38.00
2022-08-28T20:42:11.801Z,38.10
2022-08-28T20:44:40.277Z,38.30
2022-08-28T20:47:08.834Z,38.20
2022-08-28T20:49:39.537Z,38.30
2022-08-28T20:52:08.270Z,38.40
2022-08-28T20:54:38.553Z,38.50
2022-08-28T20:57:08.748Z,38.60
2022-08-28T20:59:40.530Z,38.70
2022-08-28T21:02:11.667Z,38.90
2022-08-28T21:04:40.956Z,38.90
2022-08-28T21:07:09.286Z,38.90
2022-08-28T21:10:05.258Z,39.00
2022-08-28T21:12:26.265Z,39.10
2022-08-28T21:14:55.771Z,39.20
2022-08-28T21:17:29.728Z,39.50
2022-08-28T21:20:00.638Z,39.60
2022-08-28T21:22:30.091Z,39.70
2022-08-28T21:24:58.254Z,39.80
2022-08-28T21:27:26.808Z,39.80
2022-08-28T21:29:58.542Z,40.00
2022-08-28T21:32:27.749Z,40.40
2022-08-28T21:34:58.437Z,40.20
2022-08-28T21:37:26.573Z,40.30
2022-08-28T21:39:56.499Z,40.40
2022-08-28T21:42:25.069Z,40.30
2022-08-28T21:44:54.472Z,40.40
2022-08-28T21:47:25.343Z,40.40
2022-08-28T21:49:55.000Z,40.60
2022-08-28T21:52:24.711Z,40.60
2022-08-28T21:54:58.199Z,40.70
2022-08-28T21:57:26.697Z,41.10
2022-08-28T21:59:55.452Z,40.80
2022-08-28T22:02:30.395Z,40.90
2022-08-28T22:04:58.570Z,41.10
2022-08-28T22:07:26.795Z,41.10
2022-08-28T22:09:54.875Z,41.20
2022-08-28T22:12:23.117Z,41.30
2022-08-28T22:14:51.335Z,41.30
2022-08-28T22:17:19.522Z,41.30
2022-08-28T22:19:49.023Z,41.30
2022-08-28T22:22:35.262Z,41.30
2022-08-28T22:25:03.742Z,41.30
2022-08-28T22:27:33.055Z,41.30
2022-08-28T22:30:01.219Z,41.40
2022-08-28T22:32:32.233Z,41.50
2022-08-28T22:35:01.735Z,41.70
2022-08-28T22:37:29.894Z,41.80
2022-08-28T22:39:59.153Z,41.80
2022-08-28T22:42:27.364Z,41.90
2022-08-28T22:44:55.470Z,42.00
2022-08-28T22:47:23.603Z,42.00
2022-08-28T22:49:52.124Z,41.90
2022-08-28T22:52:21.599Z,42.00
2022-08-28T22:54:53.045Z,42.10
2022-08-28T22:57:21.705Z,42.10
2022-08-28T22:59:50.164Z,42.10
2022-08-28T23:02:19.542Z,42.20
2022-08-28T23:04:52.290Z,42.20
2022-08-28T23:07:22.037Z,42.10
2022-08-28T23:09:50.317Z,42.10
2022-08-28T23:12:21.152Z,42.10
2022-08-28T23:14:49.384Z,42.10
2022-08-28T23:17:18.713Z,42.00
2022-08-28T23:19:48.288Z,42.00
2022-08-28T23:22:17.371Z,42.00
2022-08-28T23:24:48.676Z,41.90
2022-08-28T23:27:35.430Z,42.00
2022-08-28T23:30:05.245Z,42.00
2022-08-28T23:32:34.160Z,42.20
2022-08-28T23:35:02.572Z,42.50
2022-08-28T23:37:35.802Z,42.70
2022-08-28T23:40:06.324Z,43.00
2022-08-28T23:42:34.459Z,43.60
2022-08-28T23:45:02.593Z,43.60
2022-08-28T23:47:33.454Z,44.00
2022-08-28T23:50:10.935Z,44.20
2022-08-28T23:52:39.073Z,44.60
2022-08-28T23:55:10.150Z,44.70
